Latest Coastal Weather Observations for Maria Island

IDT60701

Issued at 12:52 am EDT Friday 24 February 2017 (issued every 10 minutes, with the page automatically refreshed every 10 minutes)

About coastal observations | Map of coastal stations | Coastal observations for TAS | Marine services | Other Formats
Station Details ID: 092124 Name: MARIA ISLAND (POINT LESUEUR) Lat: -42.66 Lon: 148.02 Height: 28.0 m
Data from the previous 72 hours. | See also: Recent months at Maria Island
Date/Time
EDT
Temp
°C
Wind Pressure Rain since
9am
mm
Weather Cloud Vis
km
Sea
Height
m
Swell
Dir  Spd
kts
Gust
kts
hPa Trend Height
m
Period
s
Dir
24/12:30am 15.9 SE 7 10 1019.0 - - - - - - - - -
24/12:00am 15.9 SSE 10 13 1018.9 - - - - - - - - -
 
Date/Time
EDT
Temp
°C
Wind Pressure Rain since
9am
mm
Weather Cloud Vis
km
Sea
Height
m
Swell
Dir  Spd
kts
Gust
kts
hPa Trend Height
m
Period
s
Dir
23/11:30pm 15.9 SE 10 13 1018.5 - - - - - - - - -
23/11:00pm 16.0 SSE 11 15 1018.4 - - - - - - - - -
23/10:30pm 16.2 SSE 10 14 1018.0 - - - - - - - - -
23/10:00pm 16.7 SE 5 9 1017.7 - - - - - - - - -
23/09:30pm 17.1 SE 11 16 1017.3 - - - - - - - - -
23/09:00pm 17.8 ESE 15 19 1016.6 - 0.0 - - - - - - -
23/08:30pm 18.4 SE 11 15 1015.9 - - - - - - - - -
23/08:00pm 18.1 SE 15 18 1015.2 - - - - - - - - -
23/07:30pm 18.5 SSE 13 16 1014.5 - - - - - - - - -
23/07:00pm 19.6 SE 13 16 1013.7 - - - - - - - - -
23/06:30pm 20.5 SE 14 20 1013.1 - - - - - - - - -
23/06:00pm 21.1 SE 14 18 1012.7 - - - - - - - - -
23/05:30pm 22.1 SE 14 17 1012.2 - - - - - - - - -
23/05:00pm 22.5 SE 13 17 1011.6 - - - - - - - - -
23/04:30pm 22.9 SE 10 14 1011.2 - - - - - - - - -
23/04:00pm 23.1 SSW 12 16 1010.7 - - - - - - - - -
23/03:30pm 25.0 ESE 6 9 1010.6 - - - - - - - - -
23/03:00pm 25.1 ESE 10 11 1010.4 - - - - - - - - -
23/02:30pm 23.4 ESE 11 13 1010.3 - - - - - - - - -
23/02:00pm 26.2 S 3 4 1010.1 - - - - - - - - -
23/09:30am 19.8 NNW 15 17 1008.5 - 0.0 - - - - - - -
23/09:00am 19.4 NNW 19 22 1007.9 - 0.0 - - - - - - -
23/08:30am 19.1 NNW 21 24 1007.5 - 0.0 - - - - - - -
23/08:00am 18.9 NW 17 20 1007.5 - 0.0 - - - - - - -
23/07:30am 19.1 NW 25 29 1006.6 - 0.0 - - - - - - -
23/07:00am 19.2 NW 17 21 1006.2 - 0.0 - - - - - - -
23/06:30am 17.8 NNE 11 14 1006.1 - 0.0 - - - - - - -
23/06:00am 18.6 N 12 16 1005.7 - 0.0 - - - - - - -
23/05:30am 18.4 NNE 11 15 1004.9 - 0.0 - - - - - - -
23/05:00am 17.9 N 10 12 1005.7 - 0.0 - - - - - - -
23/04:30am 17.2 N 10 12 1006.3 - 0.0 - - - - - - -
23/04:00am 17.4 N 18 21 1005.4 - 0.0 - - - - - - -
23/03:30am 17.8 N 15 18 1005.5 - 0.0 - - - - - - -
23/03:00am 17.6 N 15 19 1006.3 - 0.0 - - - - - - -
23/02:30am 17.7 N 18 19 1006.4 - 0.0 - - - - - - -
23/02:00am 17.9 N 19 22 1006.7 - 0.0 - - - - - - -
23/01:30am 17.9 N 21 24 1007.1 - 0.0 - - - - - - -
23/01:00am 17.9 N 21 24 1007.7 - 0.0 - - - - - - -
23/12:30am 18.1 N 20 25 1008.2 - 0.0 - - - - - - -
23/12:00am 17.9 N 19 23 1008.8 - 0.0 - - - - - - -
 
Date/Time
EDT
Temp
°C
Wind Pressure Rain since
9am
mm
Weather Cloud Vis
km
Sea
Height
m
Swell
Dir  Spd
kts
Gust
kts
hPa Trend Height
m
Period
s
Dir
22/11:30pm 18.1 N 19 23 1009.3 - 0.0 - - - - - - -
22/11:00pm 18.2 N 19 22 1010.0 - 0.0 - - - - - - -
22/10:30pm 18.7 NNE 19 22 1009.8 - 0.0 - - - - - - -
22/10:00pm 18.7 NNE 22 26 1009.9 - 0.0 - - - - - - -
22/09:30pm 18.6 N 25 31 1010.1 - 0.0 - - - - - - -
22/09:00pm 18.8 N 23 31 1009.7 - 0.0 - - - - - - -
22/08:30pm 18.7 N 22 27 1009.8 - 0.0 - - - - - - -
22/08:00pm 19.2 N 27 32 1009.4 - 0.0 - - - - - - -
22/07:30pm 19.3 N 24 29 1009.2 - 0.0 - - - - - - -
22/07:00pm 19.5 N 23 28 1009.4 - 0.0 - - - - - - -
22/06:30pm 19.9 N 25 30 1009.4 - 0.0 - - - - - - -
22/06:00pm 20.4 NNE 19 26 1009.9 - 0.0 - - - - - - -
22/05:30pm 20.2 N 20 24 1010.3 - 0.0 - - - - - - -
22/05:00pm 20.3 N 20 24 1010.5 - 0.0 - - - - - - -
22/04:30pm 20.7 NNE 20 24 1011.0 - 0.0 - - - - - - -
22/04:00pm 21.4 NNE 17 20 1011.6 - 0.0 - - - - - - -
22/03:30pm 21.9 NNE 15 19 1012.0 - 0.0 - - - - - - -
22/03:00pm 21.1 NNE 16 19 1012.5 - 0.0 - - - - - - -
22/02:30pm 20.7 NNE 17 22 1013.0 - 0.0 - - - - - - -
22/02:00pm 21.0 NNE 13 16 1013.3 - 0.0 - - - - - - -
22/01:30pm 19.4 N 17 22 1013.4 - 0.0 - - - - - - -
22/01:00pm 19.4 N 20 23 1013.5 - 0.0 - - - - - - -
22/12:30pm 18.8 NNE 15 19 1014.1 - 0.0 - - - - - - -
22/12:00pm 18.8 N 17 21 1014.7 - 0.0 - - - - - - -
22/11:30am 17.7 N 18 20 1015.2 - 0.0 - - - - - - -
22/11:00am 17.6 N 16 18 1015.7 - 0.0 - - - - - - -
22/10:30am 17.2 N 15 17 1016.0 - 0.0 - - - - - - -
22/10:00am 16.8 N 17 19 1016.4 - 0.0 - - - - - - -
22/09:30am 16.5 N 17 19 1016.4 - 0.0 - - - - - - -
22/09:00am 15.7 N 19 21 1016.3 - 0.0 - - - - - - -
22/08:30am 15.5 NNW 13 16 1016.6 - 0.0 - - - - - - -
22/08:00am 15.4 N 13 15 1016.5 - 0.0 - - - - - - -
22/07:30am 15.4 N 11 13 1016.3 - 0.0 - - - - - - -
22/07:00am 14.8 NNW 11 12 1016.3 - 0.0 - - - - - - -
22/06:30am 14.7 NNW 11 12 1016.4 - 0.0 - - - - - - -
22/06:00am 14.9 NNW 9 10 1016.4 - 0.0 - - - - - - -
22/05:30am 15.0 N 9 11 1016.5 - 0.0 - - - - - - -
22/05:00am 15.3 N 10 12 1016.8 - 0.0 - - - - - - -
22/04:30am 15.7 NNE 13 15 1016.9 - 0.0 - - - - - - -
22/04:00am 15.7 NNE 13 16 1017.4 - 0.0 - - - - - - -
22/03:30am 15.7 NNE 11 15 1017.6 - 0.0 - - - - - - -
22/03:00am 15.7 NNE 10 13 1018.0 - 0.0 - - - - - - -
22/02:30am 15.2 NE 12 15 1017.8 - 0.0 - - - - - - -
22/02:00am 15.3 NNE 10 12 1018.4 - 0.0 - - - - - - -
22/01:30am 14.8 NE 7 8 1018.7 - 0.0 - - - - - - -
22/01:00am 14.9 NNE 11 14 1019.1 - 0.0 - - - - - - -
22/12:30am 14.2 NE 8 10 1019.4 - 0.0 - - - - - - -
22/12:00am 14.2 ENE 4 6 1019.6 - 0.0 - - - - - - -
 
Date/Time
EDT
Temp
°C
Wind Pressure Rain since
9am
mm
Weather Cloud Vis
km
Sea
Height
m
Swell
Dir  Spd
kts
Gust
kts
hPa Trend Height
m
Period
s
Dir
21/11:30pm 14.0 ENE 7 8 1019.7 - 0.0 - - - - - - -
21/11:00pm 14.2 ENE 7 9 1019.7 - 0.0 - - - - - - -
21/10:30pm 14.1 ENE 7 8 1019.9 - 0.0 - - - - - - -
21/10:00pm 14.4 ENE 7 9 1019.9 - 0.0 - - - - - - -
21/09:30pm 14.4 ENE 8 9 1019.7 - 0.0 - - - - - - -
21/09:00pm 14.2 ENE 6 8 1019.8 - 0.0 - - - - - - -
21/08:30pm 14.4 ENE 6 9 1019.3 - 0.0 - - - - - - -
21/08:00pm 14.7 E 9 11 1019.0 - 0.0 - - - - - - -
21/07:30pm 15.0 E 9 13 1018.6 - 0.0 - - - - - - -
21/07:00pm 15.2 ESE 11 14 1018.2 - 0.0 - - - - - - -
21/06:30pm 15.6 ESE 11 13 1018.2 - 0.0 - - - - - - -
21/06:00pm 16.2 ESE 12 15 1017.8 - 0.0 - - - - - - -
21/05:30pm 16.6 E 13 15 1017.5 - 0.0 - - - - - - -
21/05:00pm 17.3 E 13 17 1017.1 - 0.0 - - - - - - -
21/04:30pm 18.2 ESE 8 14 1016.8 - 0.0 - - - - - - -
21/04:00pm 18.3 E 5 7 1016.6 - 0.0 - - - - - - -
21/03:30pm 18.2 E 8 12 1016.5 - 0.0 - - - - - - -
21/03:00pm 18.3 ESE 6 10 1016.7 - 0.0 - - - - - - -
21/02:30pm 18.0 S 9 10 1017.0 - 0.0 - - - - - - -
21/02:00pm 17.9 SSE 7 9 1017.1 - 0.0 - - - - - - -
21/01:30pm 17.4 SSE 7 9 1017.0 - 0.0 - - - - - - -
21/01:00pm 17.0 S 7 9 1017.1 - 0.0 - - - - - - -
21/12:30pm 17.1 S 9 12 1017.2 - 0.0 - - - - - - -
21/12:00pm 16.7 S 8 11 1017.4 - 0.0 - - - - - - -
21/11:30am 16.2 S 6 10 1017.5 - 0.0 - - - - - - -
21/11:00am 16.0 SSE 4 6 1017.4 - 0.0 - - - - - - -
21/10:30am 15.6 NNW 2 5 1017.4 - 0.0 - - - - - - -
21/10:00am 14.7 WNW 4 6 1017.5 - 0.0 - - - - - - -
21/09:30am 13.9 WNW 4 7 1017.1 - 0.0 - - - - - - -
21/09:00am 13.8 NW 8 10 1017.1 - 11.6 - - - - - - -
21/08:30am 13.2 WNW 7 9 1016.8 - 11.6 - - - - - - -
21/08:00am 12.8 WNW 7 9 1016.2 - 11.6 - - - - - - -
21/07:30am 12.1 WNW 10 12 1015.8 - 11.6 - - - - - - -
21/07:00am 12.7 WSW 13 19 1015.3 - 11.6 - - - - - - -
21/06:30am 11.4 WNW 6 8 1014.8 - 11.6 - - - - - - -
21/06:00am 11.2 WNW 6 7 1014.3 - 11.6 - - - - - - -
21/05:30am 11.8 W 7 8 1014.1 - 11.6 - - - - - - -
21/05:00am 12.3 W 9 11 1013.5 - 11.6 - - - - - - -
21/04:30am 12.8 WSW 13 17 1013.1 - 11.6 - - - - - - -
21/04:00am 13.0 SW 10 16 1013.1 - 11.6 - - - - - - -
21/03:30am 12.9 WSW 9 14 1013.1 - 11.6 - - - - - - -
21/03:00am 12.8 SW 11 17 1012.8 - 11.6 - - - - - - -
21/02:30am 13.0 SW 15 21 1012.5 - 11.6 - - - - - - -
21/02:00am 13.0 SW 14 18 1012.4 - 11.6 - - - - - - -
21/01:30am 13.0 SW 16 21 1012.3 - 11.6 - - - - - - -
21/01:00am 13.3 SW 17 22 1012.2 - 11.6 - - - - - - -

Other Formats:

Comma delimited format used in spreadsheet applications
http://www.bom.gov.au/fwo/IDT60701/IDT60701.95988.axf

JavaScript Object Notation format (JSON) in row-major order
http://www.bom.gov.au/fwo/IDT60701/IDT60701.95988.json